createdAt,value
2023-05-11T00:00:50.654Z,47.84
2023-05-11T00:01:54.384Z,48.30
2023-05-11T00:02:58.117Z,48.36
2023-05-11T00:04:01.945Z,48.16
2023-05-11T00:05:06.168Z,48.23
2023-05-11T00:06:09.809Z,47.99
2023-05-11T00:07:13.467Z,48.58
2023-05-11T00:08:17.670Z,48.40
2023-05-11T00:09:21.405Z,47.56
2023-05-11T00:10:25.239Z,47.86
2023-05-11T00:11:29.036Z,48.03
2023-05-11T00:12:35.453Z,47.73
2023-05-11T00:13:39.188Z,47.94
2023-05-11T00:14:42.821Z,47.86
2023-05-11T00:15:48.173Z,48.43
2023-05-11T00:16:51.942Z,48.03
2023-05-11T00:17:55.664Z,48.74
2023-05-11T00:20:19.737Z,48.39
2023-05-11T00:21:23.516Z,48.23
2023-05-11T00:22:27.125Z,48.29
2023-05-11T00:23:30.837Z,48.20
2023-05-11T00:24:34.505Z,48.16
2023-05-11T00:25:38.175Z,48.15
2023-05-11T00:26:41.840Z,48.11
2023-05-11T00:27:45.555Z,48.35
2023-05-11T00:28:49.276Z,47.79
2023-05-11T00:29:53.015Z,48.16
2023-05-11T00:30:59.602Z,48.33
2023-05-11T00:32:03.300Z,48.41
2023-05-11T00:33:07.217Z,48.05
2023-05-11T00:34:10.904Z,47.91
2023-05-11T00:35:14.733Z,47.74
2023-05-11T00:36:18.367Z,47.44
2023-05-11T00:37:22.085Z,47.74
2023-05-11T00:38:26.044Z,47.43
2023-05-11T00:39:29.909Z,47.43
2023-05-11T00:40:33.901Z,47.51
2023-05-11T00:41:37.549Z,47.43
2023-05-11T00:42:41.221Z,47.48
2023-05-11T00:43:44.954Z,47.59
2023-05-11T00:44:48.631Z,47.26
2023-05-11T00:45:52.312Z,47.50
2023-05-11T00:46:57.891Z,47.71
2023-05-11T00:48:01.986Z,47.54
2023-05-11T00:49:05.675Z,47.23
2023-05-11T00:50:10.401Z,47.15
2023-05-11T00:51:14.616Z,46.92
2023-05-11T00:52:18.298Z,47.23
2023-05-11T00:53:21.982Z,47.16
2023-05-11T00:54:26.912Z,46.85
2023-05-11T00:55:31.233Z,46.45
2023-05-11T00:56:34.904Z,46.76
2023-05-11T00:57:40.066Z,47.41
2023-05-11T00:58:43.802Z,47.07
2023-05-11T00:59:48.951Z,47.29
2023-05-11T01:00:52.740Z,46.81
2023-05-11T01:01:58.743Z,47.25
2023-05-11T01:03:03.246Z,46.79
2023-05-11T01:04:07.520Z,46.90
2023-05-11T01:05:11.617Z,46.77
2023-05-11T01:06:22.399Z,47.00
2023-05-11T01:07:35.651Z,46.80
2023-05-11T01:08:43.831Z,46.68
2023-05-11T01:10:01.018Z,47.15
2023-05-11T01:11:12.212Z,46.50
2023-05-11T01:12:25.177Z,47.26
2023-05-11T01:13:43.766Z,46.88
2023-05-11T01:15:01.373Z,47.26
2023-05-11T01:16:15.359Z,46.91
2023-05-11T01:17:26.348Z,47.02
2023-05-11T01:18:33.960Z,46.71
2023-05-11T01:19:42.950Z,45.93
2023-05-11T01:20:49.758Z,46.23
2023-05-11T01:21:53.463Z,46.26
2023-05-11T01:23:17.624Z,46.82
2023-05-11T01:24:46.688Z,46.57
2023-05-11T01:26:05.194Z,46.76
2023-05-11T01:27:24.358Z,46.46
2023-05-11T01:28:59.089Z,46.97
2023-05-11T01:30:28.807Z,45.83
2023-05-11T01:31:35.104Z,46.00
2023-05-11T01:32:42.048Z,46.04
2023-05-11T01:33:52.478Z,45.79
2023-05-11T01:35:05.448Z,46.95
2023-05-11T01:36:11.966Z,46.30
2023-05-11T01:37:19.902Z,46.04
2023-05-11T01:38:26.916Z,45.64
2023-05-11T01:39:33.626Z,46.04
2023-05-11T01:40:40.248Z,45.37
2023-05-11T01:41:49.660Z,45.48
2023-05-11T01:43:00.717Z,44.49
2023-05-11T01:44:07.241Z,44.88
2023-05-11T01:45:13.914Z,44.61
2023-05-11T01:46:21.504Z,45.06
2023-05-11T01:47:27.375Z,46.26
2023-05-11T01:48:34.929Z,46.56
2023-05-11T01:49:41.474Z,46.89
2023-05-11T01:50:46.906Z,47.48
2023-05-11T01:51:52.047Z,47.12
2023-05-11T01:52:55.801Z,47.17
2023-05-11T01:54:01.485Z,46.49
2023-05-11T01:55:07.984Z,45.84
2023-05-11T01:56:13.203Z,45.93
2023-05-11T01:57:18.862Z,46.20
2023-05-11T01:58:25.303Z,45.63
2023-05-11T01:59:30.792Z,45.82
2023-05-11T02:00:34.987Z,45.41
2023-05-11T02:01:41.540Z,45.86
2023-05-11T02:02:47.064Z,46.13
2023-05-11T02:03:54.548Z,46.05
2023-05-11T02:04:59.389Z,45.32
2023-05-11T02:06:05.591Z,45.38
2023-05-11T02:07:11.970Z,45.72
2023-05-11T02:08:17.733Z,45.91
2023-05-11T02:09:22.763Z,46.10
2023-05-11T02:10:27.712Z,45.63
2023-05-11T02:11:33.096Z,46.06
2023-05-11T02:12:37.255Z,45.94
2023-05-11T02:13:44.647Z,46.01
2023-05-11T02:14:50.020Z,45.75
2023-05-11T02:15:57.207Z,45.88
2023-05-11T02:17:04.360Z,45.67
2023-05-11T02:18:09.933Z,45.19
2023-05-11T02:19:14.589Z,45.75
2023-05-11T02:20:20.818Z,45.88
2023-05-11T02:21:25.805Z,45.68
2023-05-11T02:22:30.462Z,45.69
2023-05-11T02:23:34.778Z,45.41
2023-05-11T02:24:39.560Z,45.35
2023-05-11T02:25:43.769Z,45.10
2023-05-11T02:26:47.725Z,44.39
2023-05-11T02:27:51.775Z,44.92
2023-05-11T02:28:55.460Z,44.72
2023-05-11T02:29:59.677Z,44.66
2023-05-11T02:31:06.348Z,45.16
2023-05-11T02:32:16.710Z,45.65
2023-05-11T02:33:22.435Z,45.49
2023-05-11T02:34:29.612Z,45.21
2023-05-11T02:35:36.853Z,45.21
2023-05-11T02:36:40.704Z,45.13
2023-05-11T02:37:49.269Z,45.65
2023-05-11T02:38:58.978Z,45.62
2023-05-11T02:40:08.656Z,45.51
2023-05-11T02:41:16.681Z,45.37
2023-05-11T02:42:22.960Z,44.42
2023-05-11T02:43:30.144Z,44.96
2023-05-11T02:44:37.768Z,44.74
2023-05-11T02:45:45.149Z,45.22
2023-05-11T02:46:51.399Z,45.18
2023-05-11T02:47:59.311Z,44.84
2023-05-11T02:49:06.108Z,44.57
2023-05-11T02:50:11.369Z,44.93
2023-05-11T02:51:16.466Z,45.38
2023-05-11T02:52:21.139Z,45.29
2023-05-11T02:53:29.937Z,44.81
2023-05-11T02:54:36.196Z,44.80
2023-05-11T02:55:40.485Z,44.84
2023-05-11T02:56:44.546Z,44.92
2023-05-11T02:57:48.623Z,44.95
2023-05-11T02:58:52.303Z,44.06
2023-05-11T02:59:56.443Z,44.82
2023-05-11T03:01:00.819Z,44.65
2023-05-11T03:02:04.873Z,44.52
2023-05-11T03:03:10.259Z,44.60
2023-05-11T03:04:14.145Z,44.30
2023-05-11T03:05:17.836Z,44.61
2023-05-11T03:06:21.529Z,44.18
2023-05-11T03:07:25.259Z,43.81
2023-05-11T03:08:29.101Z,44.56
2023-05-11T03:09:32.849Z,44.33
2023-05-11T03:10:36.916Z,44.74
2023-05-11T03:11:41.440Z,44.71
2023-05-11T03:12:46.221Z,44.68
2023-05-11T03:13:50.119Z,44.23
2023-05-11T03:14:54.712Z,44.09
2023-05-11T03:16:00.244Z,44.55
2023-05-11T03:17:04.562Z,43.98
2023-05-11T03:18:11.561Z,43.44
2023-05-11T03:19:15.923Z,43.14
2023-05-11T03:20:21.727Z,43.07
2023-05-11T03:21:27.263Z,42.24
2023-05-11T03:22:32.448Z,44.31
2023-05-11T03:23:37.137Z,44.18
2023-05-11T03:24:41.430Z,43.96
2023-05-11T03:25:45.692Z,44.17
2023-05-11T03:26:54.610Z,43.92
2023-05-11T03:27:59.941Z,43.01
2023-05-11T03:29:04.013Z,42.96
2023-05-11T03:30:11.891Z,42.69
2023-05-11T03:31:15.620Z,43.26
2023-05-11T03:32:19.420Z,44.33
2023-05-11T03:33:24.979Z,43.99
2023-05-11T03:34:28.750Z,43.84
2023-05-11T03:35:35.722Z,44.55
2023-05-11T03:36:40.589Z,44.21
2023-05-11T03:37:45.080Z,44.43
2023-05-11T03:38:49.701Z,43.33
2023-05-11T03:39:58.044Z,43.94
2023-05-11T03:41:02.461Z,42.24
2023-05-11T03:42:07.711Z,42.96
2023-05-11T03:43:15.752Z,42.24
2023-05-11T03:44:22.279Z,41.50
2023-05-11T03:45:34.692Z,41.07
2023-05-11T20:01:48.522Z,48.57
2023-05-11T20:02:52.349Z,48.85
2023-05-11T20:03:56.736Z,48.51
2023-05-11T20:05:00.944Z,48.42
2023-05-11T20:06:04.869Z,48.28
2023-05-11T20:07:08.759Z,48.31
2023-05-11T20:08:12.492Z,48.04
2023-05-11T20:09:16.183Z,47.89
2023-05-11T20:10:20.375Z,48.23
2023-05-11T20:11:24.345Z,48.02
2023-05-11T20:12:28.080Z,48.06
2023-05-11T20:13:31.874Z,48.23
2023-05-11T20:14:35.590Z,48.20
2023-05-11T20:15:39.296Z,48.25
2023-05-11T20:16:43.107Z,48.20
2023-05-11T20:17:48.623Z,47.65
2023-05-11T20:18:52.412Z,48.02
2023-05-11T20:19:56.118Z,48.28
2023-05-11T20:20:59.796Z,48.38
2023-05-11T20:22:03.593Z,48.50
2023-05-11T20:23:07.478Z,48.15
2023-05-11T20:24:11.185Z,48.57
2023-05-11T20:25:18.628Z,48.02
2023-05-11T20:26:22.666Z,49.03
2023-05-11T20:27:26.375Z,48.75
2023-05-11T20:28:30.085Z,48.80
2023-05-11T20:29:33.960Z,48.75
2023-05-11T20:30:38.452Z,48.34
2023-05-11T20:31:42.313Z,48.16
2023-05-11T20:35:00.701Z,48.09
2023-05-11T20:36:04.645Z,48.31
2023-05-11T20:37:08.481Z,48.15
2023-05-11T20:38:12.218Z,48.27
2023-05-11T20:39:16.032Z,48.02
2023-05-11T20:40:20.228Z,47.86
2023-05-11T20:41:24.143Z,47.81
2023-05-11T20:42:28.044Z,48.30
2023-05-11T20:43:31.745Z,47.84
2023-05-11T20:44:35.512Z,48.27
2023-05-11T20:45:39.277Z,48.36
2023-05-11T20:46:43.638Z,47.77
2023-05-11T20:47:49.025Z,48.70
2023-05-11T20:48:52.718Z,47.87
2023-05-11T20:49:56.429Z,48.38
2023-05-11T20:51:00.257Z,48.81
2023-05-11T20:52:04.066Z,48.19
2023-05-11T20:53:07.715Z,47.94
2023-05-11T20:54:11.812Z,48.37
2023-05-11T20:55:15.717Z,48.80
2023-05-11T20:56:19.369Z,48.38
2023-05-11T20:57:23.397Z,47.96
2023-05-11T20:58:27.197Z,48.75
2023-05-11T21:00:37.844Z,48.10
2023-05-11T21:01:41.686Z,48.24
2023-05-11T21:02:46.431Z,48.77
2023-05-11T21:03:51.865Z,48.58
2023-05-11T21:04:55.576Z,48.68
2023-05-11T21:05:59.361Z,48.76
2023-05-11T21:07:03.036Z,48.29
2023-05-11T21:08:06.821Z,48.81
2023-05-11T21:09:10.527Z,48.27
2023-05-11T21:10:14.265Z,48.50
2023-05-11T21:11:18.419Z,48.43
2023-05-11T21:12:22.261Z,49.17
2023-05-11T21:13:26.020Z,48.77
2023-05-11T21:14:29.629Z,49.47
2023-05-11T21:15:33.479Z,48.38
2023-05-11T21:16:37.251Z,49.02
2023-05-11T21:17:41.034Z,48.85
2023-05-11T21:18:44.881Z,48.58
2023-05-11T21:19:50.280Z,49.06
2023-05-11T21:20:53.924Z,48.96
2023-05-11T21:21:57.637Z,48.56
2023-05-11T21:23:01.370Z,49.05
2023-05-11T21:24:05.500Z,49.08
2023-05-11T21:25:09.452Z,48.82
2023-05-11T21:26:13.212Z,49.18
2023-05-11T21:27:16.935Z,48.97
2023-05-11T21:28:20.664Z,48.89
2023-05-11T21:29:24.321Z,49.64
2023-05-11T21:30:28.116Z,49.20
2023-05-11T21:31:31.956Z,48.79
2023-05-11T21:32:35.872Z,48.87
2023-05-11T21:33:39.661Z,49.01
2023-05-11T21:34:43.311Z,49.21
2023-05-11T21:35:48.947Z,49.21
2023-05-11T21:36:52.663Z,49.09
2023-05-11T21:37:56.409Z,48.85
2023-05-11T21:39:00.170Z,48.94
2023-05-11T21:40:04.101Z,48.84
2023-05-11T21:41:07.980Z,48.53
2023-05-11T21:42:11.715Z,48.54
2023-05-11T21:43:15.498Z,48.48
2023-05-11T21:44:19.171Z,48.71
2023-05-11T21:45:23.302Z,48.83
2023-05-11T21:46:27.062Z,48.66
2023-05-11T21:47:30.893Z,49.33
2023-05-11T21:48:34.754Z,48.57
2023-05-11T21:49:38.481Z,48.42
2023-05-11T21:50:42.262Z,49.29
2023-05-11T21:51:47.646Z,48.74
2023-05-11T21:52:51.303Z,49.00
2023-05-11T21:53:55.009Z,48.57
2023-05-11T21:54:58.605Z,48.73
2023-05-11T21:56:02.341Z,49.18
2023-05-11T21:57:06.323Z,49.13
2023-05-11T21:58:10.047Z,49.63
2023-05-11T21:59:13.775Z,48.59
2023-05-11T22:00:19.033Z,48.58
2023-05-11T22:01:22.897Z,49.01
2023-05-11T22:02:26.665Z,48.56
2023-05-11T22:03:30.491Z,49.09
2023-05-11T22:04:34.402Z,48.33
2023-05-11T22:05:38.089Z,48.93
2023-05-11T22:06:41.811Z,49.21
2023-05-11T22:07:47.202Z,49.13
2023-05-11T22:08:50.951Z,49.09
2023-05-11T22:09:54.841Z,49.10
2023-05-11T22:10:58.697Z,49.35
2023-05-11T22:12:02.411Z,49.23
2023-05-11T22:13:06.093Z,49.20
2023-05-11T22:14:09.815Z,49.08
2023-05-11T22:15:13.990Z,49.15
2023-05-11T22:16:17.742Z,48.75
2023-05-11T22:17:21.412Z,49.18
2023-05-11T22:18:25.254Z,49.14
2023-05-11T22:19:28.926Z,49.18
2023-05-11T22:20:32.796Z,49.03
2023-05-11T22:21:36.447Z,49.44
2023-05-11T22:22:41.200Z,48.96
2023-05-11T22:23:46.561Z,49.81
2023-05-11T22:24:50.320Z,49.62
2023-05-11T22:25:54.207Z,49.50
2023-05-11T22:26:57.912Z,49.65
2023-05-11T22:28:01.561Z,49.35
2023-05-11T22:29:05.459Z,49.03
2023-05-11T22:30:10.385Z,49.62
2023-05-11T22:31:14.203Z,49.17
2023-05-11T22:32:21.758Z,48.80
2023-05-11T22:33:25.629Z,49.01
2023-05-11T22:34:29.494Z,49.13
2023-05-11T22:35:33.264Z,48.78
2023-05-11T22:36:37.235Z,48.98
2023-05-11T22:37:41.130Z,49.86
2023-05-11T22:38:46.607Z,49.34
2023-05-11T22:39:50.445Z,49.94
2023-05-11T22:40:54.170Z,49.34
2023-05-11T22:41:58.501Z,50.05
2023-05-11T22:43:02.158Z,49.96
2023-05-11T22:44:06.302Z,50.09
2023-05-11T22:45:10.963Z,49.22
2023-05-11T22:46:14.802Z,49.37
2023-05-11T22:47:18.612Z,49.76
2023-05-11T22:48:22.361Z,49.43
2023-05-11T22:49:26.456Z,49.26
2023-05-11T22:50:41.232Z,49.74
2023-05-11T22:51:45.299Z,48.80
2023-05-11T22:52:49.119Z,48.82
2023-05-11T22:53:54.860Z,48.34
2023-05-11T22:54:59.872Z,48.58
2023-05-11T22:56:04.875Z,48.79
2023-05-11T22:57:08.623Z,46.08
2023-05-11T22:58:12.394Z,47.52
2023-05-11T22:59:16.195Z,47.26
2023-05-11T23:00:20.995Z,47.70
2023-05-11T23:01:24.999Z,46.66
2023-05-11T23:02:28.835Z,46.73
2023-05-11T23:03:32.732Z,46.81
2023-05-11T23:04:36.505Z,46.76
2023-05-11T23:05:40.238Z,46.69
2023-05-11T23:06:43.930Z,47.21
2023-05-11T23:07:47.991Z,47.53
2023-05-11T23:08:53.477Z,47.25
2023-05-11T23:09:57.233Z,47.46
2023-05-11T23:11:01.027Z,47.78
2023-05-11T23:12:04.989Z,47.31
2023-05-11T23:13:10.161Z,47.55
2023-05-11T23:14:13.896Z,47.79
2023-05-11T23:15:17.707Z,47.04
2023-05-11T23:16:21.308Z,47.29
2023-05-11T23:17:25.024Z,46.75
2023-05-11T23:18:28.973Z,46.46
2023-05-11T23:19:32.979Z,46.92
2023-05-11T23:20:36.801Z,45.99
2023-05-11T23:21:40.521Z,46.43
2023-05-11T23:22:44.195Z,46.27
2023-05-11T23:23:47.926Z,46.06
2023-05-11T23:24:55.859Z,45.90
2023-05-11T23:25:59.564Z,46.86
2023-05-11T23:27:03.397Z,46.26
2023-05-11T23:28:07.156Z,46.71
2023-05-11T23:29:10.911Z,46.00
2023-05-11T23:30:15.082Z,45.90
2023-05-11T23:31:18.894Z,45.73
2023-05-11T23:32:24.362Z,46.18
2023-05-11T23:33:28.359Z,46.48
2023-05-11T23:34:32.271Z,45.74
2023-05-11T23:35:36.074Z,45.89
2023-05-11T23:36:39.846Z,45.84
2023-05-11T23:37:43.572Z,46.16
2023-05-11T23:38:47.460Z,45.59
2023-05-11T23:39:53.139Z,45.83
2023-05-11T23:40:56.852Z,46.12
2023-05-11T23:42:00.589Z,45.45
2023-05-11T23:43:04.333Z,45.50
2023-05-11T23:44:08.120Z,46.02
2023-05-11T23:45:12.742Z,45.71
2023-05-11T23:46:16.495Z,45.33
2023-05-11T23:47:20.405Z,45.44
2023-05-11T23:48:24.418Z,45.12
2023-05-11T23:49:28.239Z,45.09
2023-05-11T23:50:32.061Z,45.66
2023-05-11T23:51:35.915Z,45.14
2023-05-11T23:52:39.563Z,45.18
2023-05-11T23:53:43.241Z,45.47
2023-05-11T23:54:46.998Z,45.47
2023-05-11T23:55:52.409Z,44.93
2023-05-11T23:56:56.122Z,45.36
2023-05-11T23:57:59.865Z,45.48
2023-05-11T23:59:03.711Z,45.54
